createdAt,value
2022-10-10T00:00:32.379Z,50.70
2022-10-10T00:04:35.155Z,50.29
2022-10-10T00:08:35.472Z,50.76
2022-10-10T00:12:35.663Z,51.19
2022-10-10T00:16:36.271Z,51.19
2022-10-10T00:20:39.124Z,51.52
2022-10-10T00:24:39.363Z,51.07
2022-10-10T00:28:40.686Z,51.22
2022-10-10T00:32:41.368Z,51.28
2022-10-10T00:36:44.140Z,51.07
2022-10-10T00:40:50.177Z,51.01
2022-10-10T00:45:25.016Z,51.27
2022-10-10T00:49:32.461Z,51.94
2022-10-10T00:53:41.131Z,52.56
2022-10-10T00:57:41.467Z,52.93
2022-10-10T01:01:42.267Z,53.13
2022-10-10T01:05:44.876Z,52.36
2022-10-10T01:09:49.949Z,52.75
2022-10-10T01:14:04.028Z,53.17
2022-10-10T01:18:16.133Z,52.95
2022-10-10T01:22:32.442Z,53.26
2022-10-10T01:27:21.395Z,53.27
2022-10-10T01:31:28.462Z,52.66
2022-10-10T01:35:48.185Z,53.01
2022-10-10T01:39:59.905Z,52.67
2022-10-10T01:44:02.515Z,53.13
2022-10-10T01:48:08.925Z,52.65
2022-10-10T01:52:25.369Z,53.31
2022-10-10T01:56:43.545Z,53.30
2022-10-10T02:00:56.743Z,52.82
2022-10-10T02:05:06.011Z,53.11
2022-10-10T02:09:12.856Z,53.29
2022-10-10T02:13:15.881Z,53.59
2022-10-10T02:17:19.413Z,53.16
2022-10-10T02:21:23.216Z,52.94
2022-10-10T02:25:29.699Z,52.60
2022-10-10T02:29:36.702Z,52.49
2022-10-10T02:33:47.821Z,51.83
2022-10-10T02:37:52.660Z,51.54
2022-10-10T02:41:55.470Z,52.25
2022-10-10T02:45:55.698Z,52.80
2022-10-10T02:49:55.876Z,52.54
2022-10-10T02:53:58.594Z,52.54
2022-10-10T02:57:58.844Z,52.88
2022-10-10T03:01:59.072Z,52.92
2022-10-10T03:05:59.357Z,52.60
2022-10-10T03:10:02.256Z,53.05
2022-10-10T03:14:02.496Z,53.05
2022-10-10T03:18:02.676Z,53.24
2022-10-10T03:22:02.820Z,53.47
2022-10-10T03:26:07.283Z,53.51
2022-10-10T03:30:09.291Z,53.65
2022-10-10T03:34:09.580Z,54.23
2022-10-10T03:38:10.768Z,53.91
2022-10-10T03:42:13.479Z,54.38
2022-10-10T03:46:16.255Z,54.53
2022-10-10T03:50:17.103Z,54.05
2022-10-10T03:54:17.323Z,54.59
2022-10-10T03:58:23.655Z,54.87
2022-10-10T04:02:24.158Z,54.76
2022-10-10T04:06:24.462Z,54.83
2022-10-10T04:10:24.592Z,55.34
2022-10-10T04:14:27.682Z,55.65
2022-10-10T04:18:28.440Z,55.58
2022-10-10T04:22:28.645Z,55.59
2022-10-10T04:26:29.017Z,55.47
2022-10-10T04:30:35.836Z,55.36
2022-10-10T04:34:36.060Z,55.05
2022-10-10T04:38:36.282Z,55.31
2022-10-10T04:42:37.452Z,55.49
2022-10-10T04:46:40.326Z,55.63
2022-10-10T04:50:40.630Z,55.28
2022-10-10T04:54:41.015Z,55.30
2022-10-10T04:58:41.276Z,55.19
2022-10-10T05:02:44.040Z,55.34
2022-10-10T05:06:44.294Z,55.58
2022-10-10T05:10:44.559Z,55.15
2022-10-10T05:14:48.156Z,55.87
2022-10-10T05:18:51.500Z,55.87
2022-10-10T05:22:51.895Z,55.71
2022-10-10T05:26:52.233Z,55.98
2022-10-10T05:30:54.020Z,56.16
2022-10-10T05:34:56.743Z,56.46
2022-10-10T05:38:57.707Z,56.35
2022-10-10T05:42:58.358Z,56.31
2022-10-10T05:46:58.504Z,56.23
2022-10-10T05:51:03.362Z,56.00
2022-10-10T05:55:03.633Z,55.58
2022-10-10T05:59:03.941Z,54.95
2022-10-10T06:03:04.878Z,55.12
2022-10-10T06:07:07.771Z,54.84
2022-10-10T06:11:11.196Z,54.63
2022-10-10T06:15:13.308Z,54.64
2022-10-10T06:19:15.261Z,54.73
2022-10-10T06:23:18.329Z,54.17
2022-10-10T06:27:18.482Z,53.39
2022-10-10T06:31:19.203Z,53.93
2022-10-10T06:35:19.696Z,52.93
2022-10-10T06:39:22.564Z,52.36
2022-10-10T06:43:22.699Z,52.29
2022-10-10T06:47:22.993Z,52.50
2022-10-10T06:51:23.152Z,51.96
2022-10-10T06:55:25.991Z,51.70
2022-10-10T06:59:26.131Z,52.51
2022-10-10T07:03:26.977Z,52.61
2022-10-10T07:07:27.195Z,52.44
2022-10-10T07:11:30.278Z,51.69
2022-10-10T07:15:30.447Z,51.54
2022-10-10T07:19:30.584Z,50.87
2022-10-10T07:23:31.727Z,51.28
2022-10-10T07:27:34.476Z,50.53
2022-10-10T07:31:35.901Z,50.62
2022-10-10T07:35:36.145Z,50.53
2022-10-10T07:39:36.289Z,50.19
2022-10-10T07:43:39.989Z,49.83
2022-10-10T07:47:40.229Z,49.42
2022-10-10T07:51:41.220Z,49.02
2022-10-10T07:55:42.791Z,48.40
2022-10-10T07:59:45.856Z,47.62
2022-10-10T08:03:46.428Z,47.31
2022-10-10T08:07:46.619Z,45.84
2022-10-10T08:11:46.887Z,45.08
2022-10-10T08:15:53.881Z,43.67
2022-10-10T08:19:54.092Z,44.14
2022-10-10T08:23:54.264Z,44.49
2022-10-10T08:27:54.451Z,44.21
2022-10-10T08:31:57.260Z,44.22
2022-10-10T08:35:57.587Z,43.41
2022-10-10T08:39:57.731Z,43.29
2022-10-10T08:44:04.505Z,42.71
2022-10-10T08:48:15.141Z,42.19
2022-10-10T08:52:30.754Z,42.27
2022-10-10T08:56:36.076Z,41.83
2022-10-10T09:00:45.108Z,40.72
2022-10-10T09:04:47.870Z,40.10
2022-10-10T09:09:04.115Z,40.35
2022-10-10T09:13:16.910Z,41.62
2022-10-10T09:17:35.710Z,41.41
2022-10-10T09:21:43.666Z,40.85
2022-10-10T09:25:53.929Z,41.11
2022-10-10T09:30:04.264Z,41.07
2022-10-10T09:34:14.745Z,39.47
2022-10-10T09:38:34.622Z,40.63
2022-10-10T09:42:41.423Z,40.82
2022-10-10T09:46:42.184Z,39.42
2022-10-10T09:50:43.880Z,38.81
2022-10-10T09:54:49.330Z,38.84
2022-10-10T09:58:52.303Z,39.49
2022-10-10T10:03:05.900Z,38.59
2022-10-10T10:07:21.468Z,37.69
2022-10-10T10:11:34.506Z,37.22
2022-10-10T10:15:35.596Z,35.99
2022-10-10T10:19:39.358Z,36.54
2022-10-10T10:23:46.853Z,36.32
2022-10-10T10:27:49.694Z,35.65
2022-10-10T10:32:03.682Z,35.78
2022-10-10T10:36:21.843Z,33.01
2022-10-10T10:40:33.717Z,32.28
2022-10-10T10:44:48.297Z,32.71
2022-10-10T10:48:50.712Z,34.06
2022-10-10T10:53:02.655Z,36.55
2022-10-10T10:57:31.774Z,36.70
2022-10-10T11:01:56.226Z,36.28
2022-10-10T11:06:14.651Z,36.41
2022-10-10T11:10:31.419Z,36.51
2022-10-10T11:14:53.967Z,38.15
2022-10-10T11:19:18.654Z,37.33
2022-10-10T11:23:25.372Z,35.88
2022-10-10T11:27:32.935Z,32.83
2022-10-10T11:31:41.662Z,31.46
2022-10-10T11:35:51.283Z,30.75
2022-10-10T11:39:59.359Z,30.20
2022-10-10T11:44:08.635Z,32.32
2022-10-10T11:48:26.251Z,33.20
2022-10-10T11:52:40.257Z,33.74
2022-10-10T11:56:45.621Z,33.46
2022-10-10T12:00:54.943Z,34.53
2022-10-10T12:04:55.736Z,34.93
2022-10-10T12:09:06.563Z,35.78
2022-10-10T12:13:27.679Z,36.57
2022-10-10T12:17:32.574Z,35.15
2022-10-10T12:21:35.027Z,33.00
2022-10-10T12:25:46.335Z,32.89
2022-10-10T12:30:22.545Z,32.89
2022-10-10T12:34:45.279Z,33.27
2022-10-10T12:39:36.881Z,33.80
2022-10-10T12:43:52.127Z,33.59
2022-10-10T12:48:05.035Z,34.17
2022-10-10T12:52:11.114Z,35.60
2022-10-10T12:56:17.068Z,37.06
2022-10-10T13:00:24.996Z,39.23
2022-10-10T13:04:28.474Z,40.00
2022-10-10T13:08:31.809Z,40.25
2022-10-10T13:12:34.529Z,37.83
2022-10-10T13:16:47.667Z,36.48
2022-10-10T13:20:48.501Z,35.75
2022-10-10T13:24:53.102Z,37.55
2022-10-10T13:28:54.505Z,37.44
2022-10-10T13:32:59.460Z,38.75
2022-10-10T13:37:02.649Z,38.84
2022-10-10T13:41:05.960Z,39.16
2022-10-10T13:45:34.703Z,39.69
2022-10-10T13:49:37.477Z,39.86
2022-10-10T13:53:48.430Z,40.65
2022-10-10T13:57:50.742Z,40.53
2022-10-10T14:02:01.327Z,41.25
2022-10-10T14:06:04.495Z,41.16
2022-10-10T14:10:11.664Z,41.37
2022-10-10T14:14:24.096Z,41.63
2022-10-10T14:18:26.914Z,41.50
2022-10-10T14:22:29.764Z,41.19
2022-10-10T14:26:30.016Z,41.26
2022-10-10T14:30:30.401Z,40.98
2022-10-10T14:34:30.570Z,41.45
2022-10-10T14:38:33.708Z,42.18
2022-10-10T14:42:34.079Z,42.29
2022-10-10T14:46:34.390Z,42.21
2022-10-10T14:50:38.733Z,42.90
2022-10-10T14:54:41.701Z,43.27
2022-10-10T14:58:41.943Z,43.40
2022-10-10T15:02:45.434Z,44.17
2022-10-10T15:07:11.748Z,44.70
2022-10-10T15:11:09.166Z,43.74
2022-10-10T15:15:11.697Z,42.91
2022-10-10T15:19:12.889Z,42.67
2022-10-10T15:23:13.366Z,42.14
2022-10-10T15:27:16.514Z,39.83
2022-10-10T15:31:16.703Z,39.04
2022-10-10T15:35:20.175Z,38.69
2022-10-10T15:39:20.399Z,38.26
2022-10-10T15:43:23.684Z,38.58
2022-10-10T15:47:24.608Z,39.01
2022-10-10T15:51:24.850Z,39.13
2022-10-10T15:55:24.997Z,39.74
2022-10-10T15:59:27.821Z,40.25
2022-10-10T16:03:28.120Z,41.03
2022-10-10T16:07:30.408Z,42.23
2022-10-10T16:11:31.697Z,43.49
2022-10-10T16:15:34.470Z,43.93
2022-10-10T16:19:34.790Z,45.42
2022-10-10T16:23:35.729Z,46.36
2022-10-10T16:27:38.944Z,47.36
2022-10-10T16:31:43.109Z,48.57
2022-10-10T16:35:43.235Z,48.89
2022-10-10T16:39:43.356Z,49.01
2022-10-10T16:43:46.502Z,50.20
2022-10-10T16:47:49.347Z,51.32
2022-10-10T16:51:49.684Z,51.55
2022-10-10T16:55:50.092Z,52.01
2022-10-10T16:59:50.350Z,52.19
2022-10-10T17:03:54.405Z,52.89
2022-10-10T17:07:54.769Z,53.44
2022-10-10T17:11:54.988Z,53.63
2022-10-10T17:15:55.497Z,54.18
2022-10-10T17:19:58.328Z,55.20
2022-10-10T17:23:58.993Z,56.16
2022-10-10T17:27:59.463Z,56.61
2022-10-10T17:32:04.069Z,56.51
2022-10-10T17:36:15.648Z,57.01
2022-10-10T17:40:16.679Z,55.95
2022-10-10T17:44:16.920Z,55.88
2022-10-10T17:48:17.183Z,55.86
2022-10-10T17:52:21.528Z,55.57
2022-10-10T17:56:25.083Z,55.96
2022-10-10T18:00:25.537Z,55.54
2022-10-10T18:04:25.704Z,55.73
2022-10-10T18:08:28.432Z,55.68
2022-10-10T18:12:28.670Z,55.38
2022-10-10T18:16:32.416Z,55.64
2022-10-10T18:20:32.619Z,55.81
2022-10-10T18:24:35.434Z,56.32
2022-10-10T18:28:39.097Z,56.22
2022-10-10T18:32:39.305Z,57.22
2022-10-10T18:36:42.531Z,57.12
2022-10-10T18:40:45.441Z,56.72
2022-10-10T18:44:45.916Z,57.80
2022-10-10T18:48:51.347Z,58.15
2022-10-10T18:52:56.641Z,57.60
2022-10-10T18:56:59.566Z,57.60
2022-10-10T19:01:03.096Z,57.05
2022-10-10T19:05:03.615Z,57.36
2022-10-10T19:09:05.510Z,57.70
2022-10-10T19:13:08.253Z,57.30
2022-10-10T19:17:09.121Z,57.31
2022-10-10T19:21:10.112Z,57.86
2022-10-10T19:25:40.869Z,57.62
2022-10-10T19:30:15.404Z,57.83
2022-10-10T19:34:28.463Z,57.98
2022-10-10T19:38:46.477Z,57.96
2022-10-10T19:43:08.513Z,57.91
2022-10-10T19:47:11.464Z,57.98
2022-10-10T19:51:15.265Z,58.20
2022-10-10T19:55:18.353Z,58.60
2022-10-10T19:59:18.547Z,58.60
2022-10-10T20:03:22.865Z,58.35
2022-10-10T20:07:23.039Z,58.51
2022-10-10T20:11:23.694Z,58.19
2022-10-10T20:15:23.860Z,58.36
2022-10-10T20:19:27.643Z,58.51
2022-10-10T20:23:29.235Z,57.99
2022-10-10T20:27:31.464Z,58.20
2022-10-10T20:31:35.684Z,57.96
2022-10-10T20:35:39.928Z,58.38
2022-10-10T20:39:40.128Z,58.52
2022-10-10T20:43:42.166Z,58.70
2022-10-10T20:47:42.295Z,58.78
2022-10-10T20:51:48.768Z,58.45
2022-10-10T20:55:48.919Z,58.27
2022-10-10T20:59:49.121Z,58.46
2022-10-10T21:03:50.609Z,58.40
2022-10-10T21:07:53.403Z,58.21
2022-10-10T21:11:54.309Z,58.48
2022-10-10T21:15:54.612Z,57.93
2022-10-10T21:19:55.096Z,58.54
2022-10-10T21:23:58.637Z,58.02
2022-10-10T21:27:58.761Z,58.16
2022-10-10T21:31:59.009Z,58.18
2022-10-10T21:36:00.436Z,58.36
2022-10-10T21:40:03.174Z,58.26
2022-10-10T21:44:03.736Z,58.48
2022-10-10T21:48:03.918Z,58.53
2022-10-10T21:52:04.343Z,58.69
2022-10-10T21:56:11.275Z,58.34
2022-10-10T22:00:14.130Z,58.79
2022-10-10T22:04:14.390Z,59.22
2022-10-10T22:08:14.834Z,59.00
2022-10-10T22:12:17.661Z,58.53
2022-10-10T22:16:17.925Z,58.52
2022-10-10T22:20:18.123Z,58.39
2022-10-10T22:24:18.726Z,58.38
2022-10-10T22:28:22.026Z,58.61
2022-10-10T22:32:22.215Z,58.67
2022-10-10T22:36:22.432Z,59.09
2022-10-10T22:40:23.432Z,59.33
2022-10-10T22:44:26.695Z,59.41
2022-10-10T22:48:27.518Z,59.57
2022-10-10T22:52:28.524Z,59.23
2022-10-10T22:56:29.099Z,59.32
2022-10-10T23:00:32.001Z,59.30
2022-10-10T23:04:32.192Z,58.86
2022-10-10T23:08:32.457Z,58.72
2022-10-10T23:12:32.679Z,58.76
2022-10-10T23:16:39.683Z,58.64
2022-10-10T23:20:40.781Z,58.46
2022-10-10T23:24:41.383Z,58.19
2022-10-10T23:28:44.822Z,58.50
2022-10-10T23:32:48.213Z,58.54
2022-10-10T23:36:48.368Z,58.56
2022-10-10T23:40:48.491Z,58.77
2022-10-10T23:44:48.707Z,58.85
2022-10-10T23:48:51.590Z,59.43
2022-10-10T23:52:51.717Z,59.41
2022-10-10T23:56:51.860Z,59.07
